createdAt,value
2023-02-14T00:01:23.603Z,2.00
2023-02-14T00:03:51.080Z,1.92
2023-02-14T00:06:18.663Z,2.33
2023-02-14T00:08:46.248Z,1.42
2023-02-14T00:11:15.471Z,2.50
2023-02-14T00:14:06.091Z,1.35
2023-02-14T00:16:33.739Z,2.08
2023-02-14T00:19:04.034Z,1.88
2023-02-14T00:21:33.535Z,2.78
2023-02-14T00:24:01.076Z,1.40
2023-02-14T00:26:28.621Z,1.90
2023-02-14T00:28:56.141Z,1.95
2023-02-14T00:31:24.655Z,1.60
2023-02-14T00:33:52.313Z,2.03
2023-02-14T00:36:22.015Z,1.77
2023-02-14T00:38:50.866Z,1.08
2023-02-14T00:41:21.037Z,1.98
2023-02-14T00:43:53.835Z,2.22
2023-02-14T00:46:24.018Z,2.97
2023-02-14T00:48:52.582Z,2.15
2023-02-14T00:51:21.192Z,2.83
2023-02-14T00:53:51.849Z,2.75
2023-02-14T00:56:20.843Z,3.53
2023-02-14T00:58:48.863Z,2.22
2023-02-14T01:01:19.638Z,3.50
2023-02-14T01:03:47.969Z,2.28
2023-02-14T01:06:15.621Z,0.85
2023-02-14T01:08:43.484Z,3.25
2023-02-14T01:11:13.890Z,2.65
2023-02-14T01:13:41.976Z,2.80
2023-02-14T01:16:12.879Z,3.05
2023-02-14T01:18:41.668Z,3.08
2023-02-14T01:21:30.853Z,3.20
2023-02-14T01:24:02.398Z,1.85
2023-02-14T01:26:31.006Z,2.60
2023-02-14T01:29:02.128Z,1.83
2023-02-14T01:31:32.902Z,2.97
2023-02-14T01:34:00.806Z,2.70
2023-02-14T01:36:38.794Z,2.80
2023-02-14T01:39:14.071Z,3.22
2023-02-14T01:41:44.677Z,2.63
2023-02-14T01:44:14.979Z,1.92
2023-02-14T01:46:44.834Z,3.53
2023-02-14T01:49:15.127Z,1.45
2023-02-14T01:51:49.348Z,2.00
2023-02-14T01:54:18.547Z,1.85
2023-02-14T01:56:54.209Z,1.48
2023-02-14T01:59:27.512Z,1.38
2023-02-14T02:01:58.720Z,2.80
2023-02-14T02:04:35.330Z,1.90
2023-02-14T02:07:08.341Z,2.97
2023-02-14T02:10:08.648Z,2.10
2023-02-14T02:12:38.492Z,2.55
2023-02-14T02:15:07.663Z,2.67
2023-02-14T02:17:56.930Z,1.90
2023-02-14T02:20:42.568Z,2.00
2023-02-14T02:23:21.692Z,2.20
2023-02-14T02:25:54.549Z,2.60
2023-02-14T02:28:49.254Z,2.77
2023-02-14T02:31:28.562Z,2.72
2023-02-14T02:34:53.949Z,2.55
2023-02-14T02:37:36.573Z,2.50
2023-02-14T02:40:25.694Z,2.92
2023-02-14T02:43:08.108Z,3.03
2023-02-14T02:46:16.683Z,2.38
2023-02-14T02:48:53.869Z,2.42
2023-02-14T02:52:12.157Z,4.05
2023-02-14T02:54:55.069Z,3.33
2023-02-14T02:57:39.676Z,2.80
2023-02-14T03:00:12.765Z,2.13
2023-02-14T03:03:14.357Z,1.87
2023-02-14T03:05:43.188Z,2.30
2023-02-14T03:08:10.908Z,2.72
2023-02-14T03:10:40.127Z,2.40
2023-02-14T03:13:26.892Z,1.67
2023-02-14T03:16:12.793Z,2.38
2023-02-14T03:19:06.306Z,2.30
2023-02-14T03:22:08.997Z,2.42
2023-02-14T03:25:04.405Z,2.30
2023-02-14T03:27:59.360Z,2.00
2023-02-14T03:30:48.756Z,2.20
2023-02-14T03:33:48.078Z,2.88
2023-02-14T03:36:26.858Z,2.58
2023-02-14T03:39:06.043Z,2.92
2023-02-14T03:41:42.334Z,2.00
2023-02-14T03:44:11.728Z,2.50
2023-02-14T03:47:10.198Z,1.80
2023-02-14T03:49:44.008Z,3.72
2023-02-14T03:52:13.308Z,3.72
2023-02-14T03:54:42.324Z,4.72
2023-02-14T03:57:20.335Z,3.35
2023-02-14T03:59:49.188Z,2.90
2023-02-14T04:02:40.322Z,2.60
2023-02-14T04:05:17.465Z,3.25
2023-02-14T04:07:48.444Z,1.55
2023-02-14T04:10:17.104Z,1.10
2023-02-14T04:12:44.895Z,2.40
2023-02-14T04:15:13.368Z,2.53
2023-02-14T04:17:59.791Z,2.33
2023-02-14T04:20:28.489Z,2.45
2023-02-14T04:22:56.150Z,2.00
2023-02-14T04:25:23.837Z,3.08
2023-02-14T04:27:51.543Z,3.10
2023-02-14T04:30:21.201Z,2.03
2023-02-14T04:32:49.837Z,2.22
2023-02-14T04:35:17.666Z,2.33
2023-02-14T04:37:45.938Z,2.13
2023-02-14T04:40:17.468Z,2.33
2023-02-14T04:42:46.561Z,2.83
2023-02-14T04:45:14.509Z,2.13
2023-02-14T04:47:42.174Z,2.08
2023-02-14T04:50:10.062Z,2.10
2023-02-14T04:52:37.697Z,2.50
2023-02-14T04:55:06.052Z,2.38
2023-02-14T04:57:33.646Z,2.17
2023-02-14T05:00:01.485Z,2.30
2023-02-14T05:02:32.598Z,2.90
2023-02-14T05:05:00.156Z,2.25
2023-02-14T05:07:27.802Z,2.30
2023-02-14T05:09:55.402Z,2.55
2023-02-14T05:12:23.012Z,3.25
2023-02-14T05:14:50.677Z,2.67
2023-02-14T05:17:18.195Z,2.55
2023-02-14T05:19:45.896Z,2.88
2023-02-14T05:22:13.499Z,2.65
2023-02-14T05:24:41.058Z,1.42
2023-02-14T05:27:08.576Z,2.95
2023-02-14T05:29:36.123Z,2.97
2023-02-14T05:32:04.217Z,2.22
2023-02-14T05:34:31.856Z,2.08
2023-02-14T05:36:59.360Z,2.92
2023-02-14T05:39:26.903Z,1.63
2023-02-14T05:41:54.489Z,2.13
2023-02-14T05:44:22.354Z,1.27
2023-02-14T05:46:50.261Z,2.05
2023-02-14T05:49:17.835Z,2.38
2023-02-14T05:51:45.387Z,2.20
2023-02-14T05:54:12.935Z,2.55
2023-02-14T05:56:40.547Z,2.95
2023-02-14T05:59:08.078Z,2.55
2023-02-14T06:01:35.611Z,2.67
2023-02-14T06:04:03.637Z,2.90
2023-02-14T06:06:31.183Z,3.45
2023-02-14T06:08:58.928Z,3.10
2023-02-14T06:11:26.476Z,3.92
2023-02-14T06:13:53.968Z,2.40
2023-02-14T06:16:21.552Z,3.47
2023-02-14T06:18:48.995Z,2.50
2023-02-14T06:21:16.541Z,2.45
2023-02-14T06:23:44.048Z,2.17
2023-02-14T06:26:11.541Z,2.28
2023-02-14T06:28:39.951Z,2.00
2023-02-14T06:31:07.525Z,1.90
2023-02-14T06:33:35.047Z,3.33
2023-02-14T06:36:02.831Z,1.92
2023-02-14T06:38:30.455Z,2.25
2023-02-14T06:41:06.664Z,2.05
2023-02-14T06:43:34.601Z,2.70
2023-02-14T06:46:02.413Z,1.98
2023-02-14T06:48:30.421Z,1.98
2023-02-14T06:50:58.303Z,2.17
2023-02-14T06:53:26.008Z,2.05
2023-02-14T06:55:53.840Z,2.42
2023-02-14T06:58:21.870Z,2.50
2023-02-14T07:00:49.465Z,1.52
2023-02-14T07:03:17.034Z,1.70
2023-02-14T07:05:45.518Z,2.72
2023-02-14T07:08:13.154Z,1.55
2023-02-14T07:10:40.999Z,2.03
2023-02-14T07:13:08.506Z,2.67
2023-02-14T07:15:36.267Z,2.30
2023-02-14T07:18:03.968Z,1.95
2023-02-14T07:20:31.636Z,2.80
2023-02-14T07:22:59.271Z,3.33
2023-02-14T07:25:28.591Z,3.17
2023-02-14T07:27:56.217Z,2.20
2023-02-14T07:30:23.953Z,2.15
2023-02-14T07:32:51.555Z,2.40
2023-02-14T07:35:19.156Z,2.42
2023-02-14T07:37:46.687Z,3.13
2023-02-14T07:40:15.261Z,2.33
2023-02-14T07:42:44.224Z,2.63
2023-02-14T07:45:21.182Z,2.83
2023-02-14T07:47:50.732Z,1.88
2023-02-14T07:50:18.720Z,1.75
2023-02-14T07:52:46.602Z,2.45
2023-02-14T07:55:14.677Z,3.40
2023-02-14T07:57:42.316Z,2.50
2023-02-14T08:00:10.421Z,2.45
2023-02-14T08:02:40.652Z,2.25
2023-02-14T08:05:08.450Z,2.88
2023-02-14T08:07:36.055Z,1.80
2023-02-14T08:10:03.821Z,3.05
2023-02-14T08:12:49.881Z,2.65
2023-02-14T08:15:46.415Z,2.00
2023-02-14T08:18:14.498Z,2.83
2023-02-14T08:20:42.248Z,2.80
2023-02-14T08:23:10.462Z,2.05
2023-02-14T08:25:38.244Z,2.42
2023-02-14T08:28:06.210Z,2.55
2023-02-14T08:30:36.291Z,3.00
2023-02-14T08:33:04.195Z,3.47
2023-02-14T08:35:31.733Z,3.17
2023-02-14T08:37:59.601Z,5.88
2023-02-14T08:40:27.467Z,5.00
2023-02-14T08:42:55.161Z,5.00
2023-02-14T08:45:22.882Z,5.18
2023-02-14T08:47:51.025Z,5.18
2023-02-14T08:50:19.427Z,5.03
2023-02-14T08:52:47.004Z,6.30
2023-02-14T08:55:14.902Z,5.57
2023-02-14T08:57:42.472Z,5.60
2023-02-14T09:00:10.719Z,5.60
2023-02-14T09:02:38.358Z,5.35
2023-02-14T09:05:08.329Z,2.90
2023-02-14T09:07:36.804Z,6.22
2023-02-14T09:10:04.757Z,4.65
2023-02-14T09:12:32.422Z,5.40
2023-02-14T09:14:59.914Z,4.70
2023-02-14T09:17:27.562Z,4.22
2023-02-14T09:19:55.195Z,4.25
2023-02-14T09:22:22.727Z,4.57
2023-02-14T09:24:50.267Z,5.15
2023-02-14T09:27:17.842Z,4.40
2023-02-14T09:29:45.399Z,4.50
2023-02-14T09:32:13.110Z,2.65
2023-02-14T09:34:58.895Z,4.10
2023-02-14T09:37:45.134Z,3.80
2023-02-14T09:40:20.517Z,3.63
2023-02-14T09:43:24.549Z,3.15
2023-02-14T09:45:57.058Z,3.80
2023-02-14T09:48:38.110Z,3.45
2023-02-14T09:51:15.646Z,3.60
2023-02-14T09:53:45.924Z,3.30
2023-02-14T09:56:37.336Z,5.20
2023-02-14T09:59:13.905Z,3.70
2023-02-14T10:01:54.856Z,3.55
2023-02-14T10:04:34.106Z,3.60
2023-02-14T10:07:10.594Z,3.58
2023-02-14T10:10:20.684Z,3.22
2023-02-14T10:12:57.239Z,4.05
2023-02-14T10:15:28.494Z,4.45
2023-02-14T10:18:25.572Z,3.60
2023-02-14T10:21:00.477Z,3.65
2023-02-14T10:23:33.933Z,3.80
2023-02-14T10:26:05.046Z,3.67
2023-02-14T10:28:46.515Z,4.60
2023-02-14T10:31:32.469Z,3.88
2023-02-14T10:34:29.143Z,3.88
2023-02-14T10:37:18.448Z,3.75
2023-02-14T10:40:20.459Z,4.30
2023-02-14T10:43:20.820Z,3.47
2023-02-14T10:45:59.531Z,3.50
2023-02-14T10:48:49.153Z,3.35
2023-02-14T10:51:33.940Z,2.55
2023-02-14T10:54:21.963Z,3.10
2023-02-14T10:57:00.901Z,3.60
2023-02-14T10:59:52.696Z,3.08
2023-02-14T11:02:25.307Z,3.67
2023-02-14T11:04:53.277Z,3.00
2023-02-14T11:07:22.134Z,3.55
2023-02-14T11:09:50.042Z,3.40
2023-02-14T11:12:39.916Z,3.10
2023-02-14T11:15:10.492Z,3.00
2023-02-14T11:17:38.330Z,3.17
2023-02-14T11:20:23.877Z,3.33
2023-02-14T11:22:51.718Z,3.85
2023-02-14T11:25:20.702Z,3.60
2023-02-14T11:27:51.390Z,4.03
2023-02-14T11:30:34.177Z,5.38
2023-02-14T11:33:03.395Z,4.28
2023-02-14T11:35:35.247Z,4.03
2023-02-14T11:38:06.680Z,3.03
2023-02-14T11:40:36.073Z,5.10
2023-02-14T11:43:14.790Z,3.80
2023-02-14T11:45:46.037Z,4.38
2023-02-14T11:48:55.731Z,3.80
2023-02-14T11:51:29.956Z,4.25
2023-02-14T11:54:05.000Z,5.03
2023-02-14T11:56:50.762Z,4.10
2023-02-14T11:59:29.634Z,5.07
2023-02-14T12:02:01.309Z,4.60
2023-02-14T12:04:46.077Z,3.70
2023-02-14T12:07:18.432Z,3.20
2023-02-14T12:09:48.445Z,4.85
2023-02-14T12:12:17.740Z,4.40
2023-02-14T12:14:45.515Z,4.45
2023-02-14T12:17:34.565Z,4.75
2023-02-14T12:20:11.745Z,3.90
2023-02-14T12:23:19.305Z,3.45
2023-02-14T12:26:06.809Z,3.70
2023-02-14T12:28:48.100Z,5.10
2023-02-14T12:31:17.453Z,4.53
2023-02-14T12:33:46.871Z,4.97
2023-02-14T12:36:18.423Z,2.05
2023-02-14T12:39:02.199Z,3.22
2023-02-14T12:42:00.527Z,4.50
2023-02-14T12:44:49.452Z,4.85
2023-02-14T12:47:40.961Z,4.93
2023-02-14T12:50:19.642Z,4.65
2023-02-14T12:53:13.105Z,6.80
2023-02-14T12:56:03.351Z,5.88
2023-02-14T12:58:38.227Z,7.53
2023-02-14T13:01:43.646Z,6.03
2023-02-14T13:04:23.297Z,8.45
2023-02-14T13:07:28.500Z,4.70
2023-02-14T13:10:31.278Z,5.97
2023-02-14T13:12:58.860Z,6.47
2023-02-14T13:15:38.868Z,6.65
2023-02-14T13:18:44.680Z,6.63
2023-02-14T13:21:16.823Z,6.53
2023-02-14T13:23:53.209Z,5.57
2023-02-14T13:26:32.564Z,8.63
2023-02-14T13:29:11.432Z,6.88
2023-02-14T13:31:40.623Z,3.88
2023-02-14T13:34:34.551Z,4.97
2023-02-14T13:37:06.669Z,4.75
2023-02-14T13:39:50.817Z,7.45
2023-02-14T13:42:52.242Z,7.10
2023-02-14T13:45:41.038Z,5.68
2023-02-14T13:48:19.367Z,8.50
2023-02-14T13:51:05.175Z,7.82
2023-02-14T13:53:38.568Z,6.95
2023-02-14T13:56:12.305Z,5.70
2023-02-14T13:59:01.066Z,7.32
2023-02-14T14:01:34.699Z,6.50
2023-02-14T14:04:06.265Z,9.13
2023-02-14T14:07:04.922Z,6.78
2023-02-14T14:09:44.720Z,7.80
2023-02-14T14:12:29.628Z,8.20
2023-02-14T14:15:06.495Z,5.43
2023-02-14T14:17:41.086Z,7.47
2023-02-14T14:20:20.634Z,10.30
2023-02-14T14:22:50.093Z,15.65
2023-02-14T14:25:38.325Z,8.73
2023-02-14T14:28:18.792Z,14.80
2023-02-14T14:30:46.724Z,14.18
2023-02-14T14:33:27.344Z,14.13
2023-02-14T14:35:54.746Z,11.43
2023-02-14T14:38:22.389Z,6.10
2023-02-14T14:40:53.703Z,12.85
2023-02-14T14:43:37.130Z,8.30
2023-02-14T14:48:52.634Z,10.75
2023-02-14T14:51:25.100Z,7.05
2023-02-14T14:54:06.421Z,5.88
2023-02-14T14:56:37.659Z,10.35
2023-02-14T14:59:35.825Z,11.68
2023-02-14T15:02:08.016Z,7.10
2023-02-14T15:04:36.518Z,9.77
2023-02-14T15:07:34.889Z,7.15
2023-02-14T15:10:02.890Z,12.23
2023-02-14T15:13:03.542Z,10.00
2023-02-14T15:15:31.443Z,10.45
2023-02-14T15:17:59.032Z,10.55
2023-02-14T15:20:26.866Z,9.75
2023-02-14T15:22:54.646Z,6.90
2023-02-14T15:25:35.422Z,6.70
2023-02-14T15:28:03.578Z,7.18
2023-02-14T15:30:38.326Z,7.30
2023-02-14T15:33:07.722Z,9.38
2023-02-14T15:35:42.552Z,9.98
2023-02-14T15:38:12.810Z,7.95
2023-02-14T15:40:42.330Z,7.13
2023-02-14T15:43:25.496Z,11.57
2023-02-14T15:45:57.667Z,6.20
2023-02-14T15:48:33.740Z,7.32
2023-02-14T15:51:05.189Z,8.85
2023-02-14T15:53:52.333Z,14.18
2023-02-14T15:56:45.269Z,9.98
2023-02-14T16:01:53.742Z,10.13
2023-02-14T16:04:28.101Z,3.92
2023-02-14T16:07:26.312Z,4.50
2023-02-14T16:10:21.835Z,9.02
2023-02-14T16:13:08.934Z,12.98
2023-02-14T16:15:38.926Z,9.90
2023-02-14T16:18:19.525Z,7.60
2023-02-14T16:20:51.643Z,6.55
2023-02-14T16:23:29.809Z,9.40
2023-02-14T16:25:59.972Z,9.05
2023-02-14T16:28:32.006Z,8.80
2023-02-14T16:31:03.414Z,11.85
2023-02-14T16:33:34.875Z,7.82
2023-02-14T16:36:15.176Z,8.02
2023-02-14T16:38:45.621Z,9.77
2023-02-14T16:41:22.444Z,13.77
2023-02-14T16:43:52.149Z,11.02
2023-02-14T16:46:23.055Z,10.60
2023-02-14T16:48:53.354Z,9.30
2023-02-14T16:51:27.828Z,9.05
2023-02-14T16:53:59.094Z,10.10
2023-02-14T16:56:37.639Z,4.65
2023-02-14T16:59:05.455Z,9.23
2023-02-14T17:01:33.550Z,6.57
2023-02-14T17:04:01.088Z,11.80
2023-02-14T17:06:32.892Z,12.10
2023-02-14T17:09:07.592Z,9.63
2023-02-14T17:11:38.841Z,5.82
2023-02-14T17:14:07.094Z,11.20
2023-02-14T17:16:35.230Z,8.30
2023-02-14T17:19:03.790Z,6.95
2023-02-14T17:21:32.142Z,11.23
2023-02-14T17:23:59.699Z,9.30
2023-02-14T17:26:27.351Z,8.13
2023-02-14T17:28:54.917Z,7.28
2023-02-14T17:31:22.558Z,11.13
2023-02-14T17:33:50.353Z,5.57
2023-02-14T17:36:18.106Z,6.82
2023-02-14T17:38:45.769Z,8.13
2023-02-14T17:41:16.839Z,15.40
2023-02-14T17:43:45.132Z,8.27
2023-02-14T17:46:14.655Z,7.72
2023-02-14T17:48:45.731Z,12.65
2023-02-14T17:51:15.127Z,8.13
2023-02-14T17:53:42.881Z,9.57
2023-02-14T17:56:18.310Z,5.78
2023-02-14T17:58:49.439Z,9.25
2023-02-14T18:01:20.041Z,12.95
2023-02-14T18:03:48.306Z,6.68
2023-02-14T18:06:28.258Z,8.57
2023-02-14T18:09:10.505Z,9.70
2023-02-14T18:15:30.615Z,6.30
2023-02-14T18:17:58.502Z,7.20
2023-02-14T18:20:26.331Z,6.43
2023-02-14T18:22:54.077Z,6.38
2023-02-14T18:25:21.679Z,7.40
2023-02-14T18:27:49.211Z,7.55
2023-02-14T18:30:17.413Z,5.35
2023-02-14T18:32:44.993Z,5.43
2023-02-14T18:35:12.630Z,7.25
2023-02-14T18:37:40.363Z,8.68
2023-02-14T18:40:11.164Z,7.18
2023-02-14T18:42:40.093Z,6.75
2023-02-14T18:45:08.164Z,11.15
2023-02-14T18:47:36.067Z,5.43
2023-02-14T18:50:03.820Z,6.68
2023-02-14T18:52:31.452Z,7.72
2023-02-14T18:54:59.770Z,7.00
2023-02-14T18:57:27.528Z,7.72
2023-02-14T18:59:55.157Z,7.47
2023-02-14T19:02:22.914Z,7.60
2023-02-14T19:04:50.995Z,3.28
2023-02-14T19:07:18.983Z,9.18
2023-02-14T19:09:46.577Z,6.25
2023-02-14T19:12:14.210Z,6.47
2023-02-14T19:14:42.060Z,5.93
2023-02-14T19:17:09.601Z,11.85
2023-02-14T19:19:37.258Z,7.60
2023-02-14T19:22:04.892Z,6.63
2023-02-14T19:24:32.570Z,6.30
2023-02-14T19:27:00.265Z,7.20
2023-02-14T19:29:27.970Z,7.85
2023-02-14T19:31:56.228Z,5.78
2023-02-14T19:34:29.714Z,4.40
2023-02-14T19:37:00.151Z,8.02
2023-02-14T19:39:32.601Z,6.60
2023-02-14T19:42:00.901Z,8.52
2023-02-14T19:44:29.616Z,6.65
2023-02-14T19:47:00.317Z,7.93
2023-02-14T19:49:29.387Z,6.88
2023-02-14T19:51:57.977Z,3.95
2023-02-14T19:54:26.019Z,4.03
2023-02-14T19:56:56.522Z,10.18
2023-02-14T19:59:24.234Z,5.38
2023-02-14T20:01:56.980Z,8.80
2023-02-14T20:04:29.623Z,3.72
2023-02-14T20:06:57.537Z,4.32
2023-02-14T20:09:25.969Z,6.45
2023-02-14T20:11:55.992Z,6.53
2023-02-14T20:14:26.533Z,6.57
2023-02-14T20:16:56.943Z,9.02
2023-02-14T20:19:29.932Z,5.88
2023-02-14T20:21:57.460Z,5.38
2023-02-14T20:24:28.658Z,6.93
2023-02-14T20:26:56.931Z,9.40
2023-02-14T20:29:25.559Z,6.30
2023-02-14T20:31:58.393Z,8.77
2023-02-14T20:34:27.195Z,5.77
2023-02-14T20:36:56.245Z,5.60
2023-02-14T20:39:31.572Z,6.65
2023-02-14T20:42:00.248Z,4.63
2023-02-14T20:44:28.544Z,5.38
2023-02-14T20:46:56.783Z,7.50
2023-02-14T20:49:26.595Z,5.20
2023-02-14T20:51:54.728Z,6.22
2023-02-14T20:54:25.284Z,4.70
2023-02-14T20:56:53.462Z,11.10
2023-02-14T20:59:27.414Z,7.85
2023-02-14T21:01:56.943Z,4.45
2023-02-14T21:04:26.268Z,5.85
2023-02-14T21:06:54.346Z,7.80
2023-02-14T21:09:22.015Z,3.10
2023-02-14T21:11:50.688Z,4.38
2023-02-14T21:14:18.284Z,7.25
2023-02-14T21:16:45.868Z,8.73
2023-02-14T21:19:13.461Z,4.40
2023-02-14T21:21:41.264Z,4.95
2023-02-14T21:24:11.568Z,4.22
2023-02-14T21:26:39.735Z,5.22
2023-02-14T21:29:08.965Z,6.20
2023-02-14T21:31:37.015Z,3.22
2023-02-14T21:34:05.246Z,5.22
2023-02-14T21:36:38.154Z,3.65
2023-02-14T21:39:07.104Z,6.80
2023-02-14T21:41:36.636Z,4.93
2023-02-14T21:44:05.493Z,5.80
2023-02-14T21:46:37.162Z,4.53
2023-02-14T21:49:24.749Z,6.05
2023-02-14T21:51:52.469Z,4.57
2023-02-14T21:54:20.190Z,4.35
2023-02-14T21:56:49.575Z,2.05
2023-02-14T21:59:17.251Z,5.38
2023-02-14T22:01:44.986Z,6.00
2023-02-14T22:04:13.089Z,4.75
2023-02-14T22:06:42.257Z,3.05
2023-02-14T22:09:12.624Z,2.25
2023-02-14T22:11:41.105Z,5.22
2023-02-14T22:14:09.270Z,2.53
2023-02-14T22:16:38.481Z,3.70
2023-02-14T22:19:07.553Z,3.40
2023-02-14T22:21:35.704Z,4.05
2023-02-14T22:24:03.361Z,4.28
2023-02-14T22:26:38.950Z,4.75
2023-02-14T22:29:08.725Z,3.10
2023-02-14T22:31:43.715Z,1.92
2023-02-14T22:34:14.426Z,3.20
2023-02-14T22:36:42.284Z,5.43
2023-02-14T22:39:13.823Z,2.72
2023-02-14T22:41:41.443Z,2.65
2023-02-14T22:44:09.593Z,4.35
2023-02-14T22:46:37.676Z,2.08
2023-02-14T22:49:06.687Z,2.63
2023-02-14T22:51:39.641Z,3.80
2023-02-14T22:54:13.812Z,2.08
2023-02-14T22:56:47.096Z,4.00
2023-02-14T22:59:19.337Z,2.67
2023-02-14T23:01:47.722Z,3.17
2023-02-14T23:04:21.912Z,2.97
2023-02-14T23:06:49.830Z,2.97
2023-02-14T23:09:17.630Z,4.35
2023-02-14T23:11:46.308Z,3.88
2023-02-14T23:14:33.250Z,4.13
2023-02-14T23:17:19.251Z,1.60
2023-02-14T23:20:05.742Z,7.97
2023-02-14T23:22:36.202Z,3.50
2023-02-14T23:25:07.403Z,2.97
2023-02-14T23:27:53.106Z,3.65
2023-02-14T23:30:20.745Z,4.22
2023-02-14T23:32:48.472Z,2.63
2023-02-14T23:35:16.264Z,3.25
2023-02-14T23:37:43.828Z,4.38
2023-02-14T23:40:11.822Z,3.83
2023-02-14T23:42:40.446Z,2.53
2023-02-14T23:45:26.679Z,3.30
2023-02-14T23:47:54.373Z,2.50
2023-02-14T23:50:21.936Z,3.78
2023-02-14T23:52:49.533Z,1.42
2023-02-14T23:55:17.062Z,4.88
2023-02-14T23:57:44.699Z,2.08
